Terminal Aerodrome Forecast
Issued by NWS

Current Version | Previous Version | Text Only | Print | Product List | Glossary On
Versions: 1 2 3 4 5 6 7 8 9 10 11 12 13 14 15 16 17 18 19 20 21
000
FTUS41 KCAR 291302 AAA
TAFFVE
TAF AMD
KFVE 291302Z 2913/3012 30017G25KT 1SM -SHSN BKN015
     FM291600 30017G25KT P6SM SCT020 BKN035
     FM300100 30009KT P6SM SCT050=

USA.gov is the U.S. government's official web portal to all federal, state and local government web resources and services.